createdAt,value
2017-07-17T11:32:49.651Z,99.99
2017-07-17T11:33:02.578Z,99.99
2017-07-17T11:33:15.495Z,99.99
2017-07-17T11:33:28.937Z,99.99
2017-07-17T11:33:41.839Z,99.99
2017-07-17T11:33:54.802Z,99.99
2017-07-17T11:34:08.226Z,99.99
2017-07-17T11:34:21.153Z,99.99
2017-07-17T11:34:34.646Z,99.99
2017-07-17T11:34:47.656Z,99.96
2017-07-17T11:35:01.059Z,99.99
2017-07-17T11:35:13.975Z,99.99
2017-07-17T11:35:26.959Z,99.99
2017-07-17T11:35:38.275Z,99.99
2017-07-17T11:35:51.761Z,99.77
2017-07-17T11:36:04.684Z,99.58
2017-07-17T11:36:17.638Z,99.48
2017-07-17T11:36:31.122Z,99.67
2017-07-17T11:36:44.024Z,99.82
2017-07-17T11:36:57.544Z,99.58
2017-07-17T11:37:10.477Z,99.67
2017-07-17T11:37:22.860Z,99.48
2017-07-17T11:37:35.781Z,99.99
2017-07-17T11:37:48.625Z,99.58
2017-07-17T11:38:02.006Z,99.99
2017-07-17T11:38:14.949Z,99.96
2017-07-17T11:38:27.880Z,99.99
2017-07-17T11:38:40.256Z,99.99
2017-07-17T11:38:53.673Z,99.99
2017-07-17T11:39:06.578Z,99.99
2017-07-17T11:39:20.025Z,99.99
2017-07-17T11:39:33.507Z,99.82
2017-07-17T11:39:45.413Z,99.99
2017-07-17T11:39:58.317Z,99.99
2017-07-17T11:40:11.269Z,99.82
2017-07-17T11:40:24.752Z,99.72
2017-07-17T11:40:38.195Z,99.43
2017-07-17T11:40:51.650Z,99.43
2017-07-17T11:41:03.542Z,99.53
2017-07-17T11:41:16.468Z,99.34
2017-07-17T11:41:29.398Z,99.43
2017-07-17T11:41:42.330Z,99.15
2017-07-17T11:41:54.171Z,99.63
2017-07-17T11:42:06.602Z,99.34
2017-07-17T11:42:20.166Z,99.24
2017-07-17T11:42:32.593Z,99.53
2017-07-17T11:42:44.466Z,99.05
2017-07-17T11:42:57.878Z,99.15
2017-07-17T11:43:11.325Z,99.24
2017-07-17T11:43:24.733Z,99.05
2017-07-17T11:43:37.734Z,99.34
2017-07-17T11:43:49.643Z,98.96
2017-07-17T11:44:02.610Z,99.24
2017-07-17T11:44:14.946Z,99.05
2017-07-17T11:44:27.855Z,99.34
2017-07-17T11:44:40.792Z,99.24
2017-07-17T11:44:54.252Z,99.15
2017-07-17T11:45:07.705Z,99.34
2017-07-17T11:45:20.635Z,99.24
2017-07-17T11:45:32.996Z,99.34
2017-07-17T11:45:44.865Z,99.43
2017-07-17T11:56:08.639Z,98.05
2017-07-17T11:56:22.119Z,98.05
2017-07-17T11:56:35.566Z,97.56
2017-07-17T11:56:48.946Z,97.09
2017-07-17T11:57:02.421Z,97.09
2017-07-17T11:57:15.872Z,97.66
2017-07-17T11:58:27.674Z,97.18
2017-07-17T11:58:40.553Z,97.28
2017-07-17T11:58:54.051Z,96.99
2017-07-17T11:59:07.533Z,97.09
2017-07-17T11:59:20.964Z,97.23
2017-07-17T11:59:34.343Z,97.33
2017-07-17T11:59:47.246Z,96.75
2017-07-17T12:00:00.155Z,96.85
2017-07-17T12:00:13.609Z,96.47
2017-07-17T12:00:27.037Z,96.75
2017-07-17T12:00:40.539Z,96.27
2017-07-17T12:00:53.996Z,96.56
2017-07-17T12:01:07.425Z,96.66
2017-07-17T12:01:20.821Z,96.47
2017-07-17T12:01:34.264Z,96.66
2017-07-17T12:01:47.152Z,96.47
2017-07-17T12:02:00.593Z,96.37
2017-07-17T12:02:14.004Z,96.66
2017-07-17T12:02:27.424Z,96.56
2017-07-17T12:02:40.845Z,95.98
2017-07-17T12:02:54.310Z,96.18
2017-07-17T12:03:07.756Z,96.08
2017-07-17T12:03:21.167Z,95.79
2017-07-17T12:03:34.593Z,96.75
2017-07-17T12:03:48.046Z,96.56
2017-07-17T12:04:01.488Z,96.37
2017-07-17T12:04:14.947Z,96.66
2017-07-17T12:04:28.424Z,96.37
2017-07-17T12:04:41.333Z,96.08
2017-07-17T12:05:53.971Z,96.37
2017-07-17T12:06:06.365Z,96.66
2017-07-17T12:06:19.302Z,96.56
2017-07-17T12:06:32.742Z,96.37
2017-07-17T12:06:45.706Z,96.47
2017-07-17T12:06:58.597Z,96.47
2017-07-17T12:07:12.078Z,96.47
2017-07-17T12:07:24.410Z,96.56
2017-07-17T12:07:37.870Z,96.66
2017-07-17T12:07:49.715Z,96.37
2017-07-17T12:08:03.170Z,96.56
2017-07-17T12:08:16.150Z,96.56
2017-07-17T12:08:29.839Z,96.66
2017-07-17T12:08:42.747Z,96.56
2017-07-17T12:08:56.185Z,96.37
2017-07-17T12:09:09.125Z,96.47
2017-07-17T12:09:22.549Z,96.27
2017-07-17T12:09:35.407Z,96.37
2017-07-17T12:09:48.360Z,96.03
2017-07-17T12:10:01.842Z,96.08
2017-07-17T12:10:15.287Z,96.47
2017-07-17T12:10:28.780Z,95.98
2017-07-17T12:10:42.189Z,96.85
2017-07-17T12:10:55.090Z,96.56
2017-07-17T12:11:07.996Z,96.66
2017-07-17T12:11:21.623Z,96.08
2017-07-17T12:11:34.573Z,96.37
2017-07-17T12:11:48.080Z,96.18
2017-07-17T12:12:01.499Z,96.18
2017-07-17T12:12:13.337Z,96.61
2017-07-17T12:12:25.680Z,96.13
2017-07-17T12:12:38.608Z,95.84
2017-07-17T12:12:51.562Z,95.75
2017-07-17T12:13:05.011Z,95.65
2017-07-17T12:13:18.406Z,95.65
2017-07-17T12:13:30.798Z,95.65
2017-07-17T12:13:43.747Z,95.75
2017-07-17T12:13:57.220Z,95.65
2017-07-17T12:14:09.591Z,95.26
2017-07-17T12:14:21.904Z,95.36
2017-07-17T12:14:34.826Z,95.26
2017-07-17T12:14:47.757Z,95.55
2017-07-17T12:15:01.268Z,95.55
2017-07-17T12:15:14.168Z,95.55
2017-07-17T12:15:27.633Z,95.36
2017-07-17T12:15:41.137Z,95.46
2017-07-17T12:15:53.527Z,95.65
2017-07-17T12:16:05.925Z,95.26
2017-07-17T12:16:18.815Z,95.36
2017-07-17T12:16:31.735Z,95.36
2017-07-17T12:16:44.606Z,95.65
2017-07-17T12:16:58.119Z,95.65
2017-07-17T12:17:11.548Z,95.94
2017-07-17T12:17:24.495Z,95.55
2017-07-17T12:17:36.815Z,95.65
2017-07-17T12:17:49.765Z,95.46
2017-07-17T12:18:03.207Z,95.55
2017-07-17T12:18:16.661Z,95.84
2017-07-17T12:18:30.357Z,95.84
2017-07-17T12:18:43.735Z,95.36
2017-07-17T12:18:56.092Z,94.79
2017-07-17T12:19:09.003Z,95.07
2017-07-17T12:19:22.434Z,95.17
2017-07-17T12:19:35.912Z,95.07
2017-07-17T12:19:48.903Z,94.69
2017-07-17T12:20:01.280Z,94.88
2017-07-17T12:20:14.800Z,95.55
2017-07-17T12:20:28.256Z,95.07
2017-07-17T12:20:40.603Z,95.17
2017-07-17T12:20:53.000Z,95.07
2017-07-17T12:21:06.456Z,95.75
2017-07-17T12:21:18.838Z,94.79
2017-07-17T12:21:31.765Z,95.26
2017-07-17T12:21:45.217Z,94.98
2017-07-17T12:21:58.152Z,94.79
2017-07-17T12:22:10.558Z,94.98
2017-07-17T12:22:23.461Z,95.07
2017-07-17T12:22:35.822Z,94.98
2017-07-17T12:22:48.789Z,94.98
2017-07-17T12:23:02.262Z,94.98
2017-07-17T12:23:15.658Z,94.98
2017-07-17T12:23:29.076Z,94.69
2017-07-17T12:23:41.949Z,94.98
2017-07-17T12:23:54.300Z,94.88
2017-07-17T12:24:07.767Z,94.98
2017-07-17T12:24:21.158Z,94.79
2017-07-17T12:24:33.549Z,94.88
2017-07-17T12:24:47.106Z,95.17
2017-07-17T12:25:00.657Z,94.98
2017-07-17T12:25:12.969Z,95.07
2017-07-17T12:25:25.876Z,94.88
2017-07-17T12:25:38.230Z,95.21
2017-07-17T12:25:51.722Z,95.17
2017-07-17T12:26:04.680Z,95.12
2017-07-17T12:26:17.565Z,94.64
2017-07-17T12:26:30.464Z,94.83
2017-07-17T12:26:43.338Z,94.83
2017-07-17T12:26:56.756Z,94.74
2017-07-17T12:27:09.728Z,94.54
2017-07-17T12:27:23.123Z,94.64
2017-07-17T12:27:36.045Z,94.64
2017-07-17T12:27:49.486Z,93.97
2017-07-17T12:28:02.459Z,94.35
2017-07-17T12:28:15.932Z,93.77
2017-07-17T12:28:28.847Z,93.97
2017-07-17T12:28:42.267Z,93.87
2017-07-17T12:28:55.773Z,93.97
2017-07-17T12:29:08.677Z,93.77
2017-07-17T12:29:21.566Z,94.07
2017-07-17T12:29:35.051Z,93.87
2017-07-17T12:29:47.962Z,93.87
2017-07-17T12:30:00.307Z,94.16
2017-07-17T12:30:13.785Z,93.77
2017-07-17T12:30:26.720Z,93.59
2017-07-17T12:30:40.245Z,93.39
2017-07-17T12:30:53.726Z,93.77
2017-07-17T12:31:07.121Z,94.16
2017-07-17T12:31:20.018Z,94.16
2017-07-17T12:31:32.370Z,94.16
2017-07-17T12:31:45.813Z,94.16
2017-07-17T12:31:58.722Z,93.49
2017-07-17T12:32:12.145Z,93.49
2017-07-17T12:32:25.593Z,93.59
2017-07-17T12:32:38.502Z,93.49
2017-07-17T12:32:51.317Z,93.49
2017-07-17T12:33:04.202Z,93.3
2017-07-17T12:33:17.201Z,93.49
2017-07-17T12:33:30.685Z,93.39
2017-07-17T12:33:43.023Z,93.49
2017-07-17T12:33:56.487Z,94.16
2017-07-17T12:34:09.942Z,94.16
2017-07-17T12:34:22.898Z,94.16
2017-07-17T12:34:36.343Z,93.97
2017-07-17T12:34:49.234Z,94.16
2017-07-17T12:35:02.862Z,93.87
2017-07-17T12:35:16.762Z,94.16
2017-07-17T12:35:29.708Z,94.16
2017-07-17T12:35:42.083Z,93.97
2017-07-17T12:35:54.955Z,93.97
2017-07-17T12:36:08.416Z,94.16
2017-07-17T12:36:20.869Z,93.3
2017-07-17T12:36:33.789Z,93.3
2017-07-17T12:36:47.181Z,94.07
2017-07-17T12:37:00.074Z,94.26
2017-07-17T12:37:13.014Z,93.97
2017-07-17T12:37:26.452Z,93.97
2017-07-17T12:37:39.947Z,93.97
2017-07-17T12:37:52.874Z,94.16
2017-07-17T12:38:05.268Z,93.82
2017-07-17T12:38:18.215Z,93.97
2017-07-17T12:38:31.124Z,94.01
2017-07-17T12:38:44.527Z,94.01
2017-07-17T12:38:58.015Z,94.11
2017-07-17T12:39:10.915Z,94.11
2017-07-17T12:39:23.844Z,94.21
2017-07-17T12:39:37.337Z,93.49
2017-07-17T12:39:50.721Z,93.54
2017-07-17T12:40:04.106Z,93.92
2017-07-17T12:40:17.116Z,94.01
2017-07-17T12:40:30.015Z,94.31
2017-07-17T12:40:42.900Z,94.11
2017-07-17T12:40:56.345Z,94.4
2017-07-17T12:41:09.743Z,93.77
2017-07-17T12:41:23.217Z,94.31
2017-07-17T12:41:36.627Z,94.01
2017-07-17T12:41:50.097Z,94.31
2017-07-17T12:42:02.481Z,93.92
2017-07-17T12:42:15.959Z,94.49
2017-07-17T12:42:28.910Z,94.21
2017-07-17T12:42:41.853Z,94.49
2017-07-17T12:42:54.826Z,94.21
2017-07-17T12:43:08.259Z,94.11
2017-07-17T12:43:21.730Z,94.59
2017-07-17T12:43:34.649Z,94.59
2017-07-17T12:43:47.485Z,94.59
2017-07-17T12:44:00.946Z,94.69
2017-07-17T12:44:14.333Z,94.59
2017-07-17T12:44:27.272Z,94.69
2017-07-17T12:44:40.206Z,94.59
2017-07-17T12:44:53.172Z,94.59
2017-07-17T12:45:06.656Z,94.49
2017-07-17T12:45:19.534Z,95.07
2017-07-17T12:45:32.452Z,95.75
2017-07-17T12:45:45.378Z,95.45
2017-07-17T12:45:58.813Z,95.36
2017-07-17T12:46:11.773Z,95.26
2017-07-17T12:46:25.259Z,94.88
2017-07-17T12:46:38.721Z,94.98
2017-07-17T12:46:52.213Z,94.88
2017-07-17T12:47:05.674Z,94.49
2017-07-17T12:47:16.968Z,94.73
2017-07-17T12:47:30.397Z,94.4
2017-07-17T12:47:43.806Z,94.93
2017-07-17T12:47:57.225Z,94.69
2017-07-17T12:48:10.648Z,94.54
2017-07-17T12:48:23.553Z,94.01
2017-07-17T12:48:37.464Z,93.39
2017-07-17T12:48:50.938Z,93.1
2017-07-17T12:49:03.347Z,93.29
2017-07-17T12:49:16.321Z,93.01
2017-07-17T12:49:29.254Z,93.1
2017-07-17T12:49:42.182Z,93.29
2017-07-17T12:49:55.644Z,93.19
2017-07-17T12:50:09.089Z,93.01
2017-07-17T12:50:22.537Z,92.81
2017-07-17T12:50:35.459Z,92.72
2017-07-17T12:50:48.851Z,92.91
2017-07-17T12:51:02.315Z,93.1
2017-07-17T12:51:15.217Z,93.58
2017-07-17T12:51:28.135Z,93.1
2017-07-17T12:51:41.039Z,93.49
2017-07-17T12:51:53.976Z,93.49
2017-07-17T12:52:07.448Z,93.39
2017-07-17T12:52:20.890Z,93.01
2017-07-17T12:52:33.268Z,92.91
2017-07-17T12:52:45.674Z,92.91
2017-07-17T12:52:58.523Z,93.19
2017-07-17T12:53:11.473Z,93.49
2017-07-17T12:53:24.389Z,93.1
2017-07-17T12:53:37.843Z,93.01
2017-07-17T12:53:50.827Z,92.91
2017-07-17T12:54:03.735Z,93.58
2017-07-17T12:54:17.243Z,93.19
2017-07-17T12:54:30.642Z,92.72
2017-07-17T12:54:43.008Z,92.81
2017-07-17T12:54:55.873Z,92.24
2017-07-17T12:55:07.735Z,92.43
2017-07-17T12:55:20.621Z,92.43
2017-07-17T12:55:34.052Z,92.72
2017-07-17T12:55:47.483Z,92.72
2017-07-17T12:56:00.949Z,92.72
2017-07-17T12:56:13.334Z,92.43
2017-07-17T12:56:26.307Z,92.62
2017-07-17T12:56:39.766Z,93.1
2017-07-17T12:56:53.182Z,93.19
2017-07-17T12:57:06.611Z,93.29
2017-07-17T12:57:19.479Z,93.19
2017-07-17T12:57:32.948Z,92.91
2017-07-17T12:57:45.815Z,93.49
2017-07-17T12:57:59.241Z,93.39
2017-07-17T12:58:12.105Z,93.24
2017-07-17T12:58:25.590Z,93.29
2017-07-17T12:58:39.057Z,93.01
2017-07-17T12:58:52.084Z,92.47
2017-07-17T12:59:04.481Z,92.67
2017-07-17T12:59:17.419Z,92.52
2017-07-17T12:59:30.925Z,92.33
2017-07-17T12:59:44.375Z,92.62
2017-07-17T12:59:57.873Z,92.86
2017-07-17T13:00:11.320Z,92.57
2017-07-17T13:00:24.255Z,92.57
2017-07-17T13:00:37.724Z,92.86
2017-07-17T13:00:51.178Z,93.24
2017-07-17T13:01:04.036Z,93.34
2017-07-17T13:01:16.367Z,93.05
2017-07-17T13:01:29.751Z,92.96
2017-07-17T13:01:42.677Z,92.47
2017-07-17T13:01:56.136Z,92.76
2017-07-17T13:02:08.483Z,92.47
2017-07-17T13:02:21.299Z,92.57
2017-07-17T13:02:34.199Z,92.57
2017-07-17T13:02:47.090Z,92.38
2017-07-17T13:03:00.060Z,92.09
2017-07-17T13:03:13.000Z,91.9
2017-07-17T13:03:25.917Z,91.9
2017-07-17T13:03:39.302Z,91.8
2017-07-17T13:03:50.168Z,92.57
2017-07-17T13:04:03.071Z,91.9
2017-07-17T13:04:16.478Z,92.29
2017-07-17T13:04:29.861Z,91.99
2017-07-17T13:04:42.802Z,91.99
2017-07-17T13:04:56.266Z,91.71
2017-07-17T13:05:09.218Z,91.8
2017-07-17T13:05:22.130Z,91.9
2017-07-17T13:05:35.584Z,91.71
2017-07-17T13:05:48.527Z,91.99
2017-07-17T13:06:02.014Z,91.99
2017-07-17T13:06:15.537Z,92.09
2017-07-17T13:06:29.050Z,91.9
2017-07-17T13:06:41.900Z,91.61
2017-07-17T13:06:55.330Z,91.32
2017-07-17T13:07:08.789Z,91.32
2017-07-17T13:07:21.702Z,91.13
2017-07-17T13:07:35.217Z,91.75
2017-07-17T13:07:48.713Z,91.61
2017-07-17T13:08:02.160Z,91.71
2017-07-17T13:08:14.572Z,91.71
2017-07-17T13:08:27.995Z,91.99
2017-07-17T13:08:40.819Z,91.61
2017-07-17T13:08:54.297Z,91.42
2017-07-17T13:09:07.772Z,91.22
2017-07-17T13:09:20.608Z,91.36
2017-07-17T13:09:33.572Z,91.36
2017-07-17T13:09:45.955Z,91.42
2017-07-17T13:09:58.906Z,91.36
2017-07-17T13:10:11.877Z,91.75
2017-07-17T13:10:25.396Z,91.08
2017-07-17T13:10:38.273Z,90.98
2017-07-17T13:10:51.237Z,90.98
2017-07-17T13:11:04.175Z,90.89
2017-07-17T13:11:17.848Z,91.17
2017-07-17T13:11:31.320Z,91.17
2017-07-17T13:11:44.789Z,90.59
2017-07-17T13:11:57.712Z,90.02
2017-07-17T13:12:11.145Z,90.12
2017-07-17T13:12:24.593Z,90.31
2017-07-17T13:12:37.538Z,90.12
2017-07-17T13:12:50.983Z,90.12
2017-07-17T13:13:03.904Z,90.02
2017-07-17T13:13:16.867Z,90.21
2017-07-17T13:13:30.338Z,90.12
2017-07-17T13:13:43.280Z,90.21
2017-07-17T13:13:56.728Z,90.69
2017-07-17T13:14:10.197Z,90.31
2017-07-17T13:14:23.625Z,90.59
2017-07-17T13:14:36.557Z,90.59
2017-07-17T13:14:49.973Z,90.59
2017-07-17T13:15:03.393Z,91.27
2017-07-17T13:15:16.935Z,90.69
2017-07-17T13:15:29.866Z,90.5
2017-07-17T13:15:42.790Z,90.89
2017-07-17T13:15:55.713Z,90.89
2017-07-17T13:16:08.094Z,90.98
2017-07-17T13:16:21.034Z,91.08
2017-07-17T13:16:34.543Z,91.27
2017-07-17T13:16:47.463Z,91.56
2017-07-17T13:17:00.343Z,91.27
2017-07-17T13:17:15.470Z,91.27
2017-07-17T13:17:28.971Z,91.36
2017-07-17T13:17:42.402Z,91.75
2017-07-17T13:17:55.266Z,90.98
2017-07-17T13:18:08.685Z,90.89
2017-07-17T13:18:22.153Z,90.79
2017-07-17T13:18:35.601Z,90.89
2017-07-17T13:18:49.017Z,90.5
2017-07-17T13:19:02.346Z,90.59
2017-07-17T13:19:15.231Z,91.17
2017-07-17T13:19:28.689Z,91.08
2017-07-17T13:19:41.618Z,90.98
2017-07-17T13:19:55.051Z,91.27
2017-07-17T13:20:08.035Z,91.27
2017-07-17T13:20:21.563Z,91.22
2017-07-17T13:20:34.959Z,91.6
2017-07-17T13:20:47.942Z,91.56
2017-07-17T13:21:00.413Z,91.56
2017-07-17T13:21:13.847Z,91.75
2017-07-17T13:21:26.215Z,91.22
2017-07-17T13:21:39.725Z,91.17
2017-07-17T13:21:53.396Z,91.13
2017-07-17T13:22:06.357Z,91.03
2017-07-17T13:22:19.830Z,90.93
2017-07-17T13:22:32.751Z,91.13
2017-07-17T13:22:46.172Z,90.83
2017-07-17T13:22:59.630Z,91.31
2017-07-17T13:23:12.628Z,90.73
2017-07-17T13:23:26.138Z,90.35
2017-07-17T13:23:39.573Z,90.45
2017-07-17T13:23:52.508Z,90.55
2017-07-17T13:24:05.438Z,89.97
2017-07-17T13:24:18.315Z,90.06
2017-07-17T13:24:30.761Z,90.55
2017-07-17T13:24:43.124Z,90.64
2017-07-17T13:24:56.052Z,90.06
2017-07-17T13:25:08.961Z,90.64
2017-07-17T13:25:21.836Z,90.64
2017-07-17T13:25:34.693Z,90.55
2017-07-17T13:25:47.599Z,90.26
2017-07-17T13:26:01.052Z,90.06
2017-07-17T13:26:14.495Z,89.87
2017-07-17T13:26:27.426Z,89.58
2017-07-17T13:26:40.873Z,89.49
2017-07-17T13:26:54.381Z,89.58
2017-07-17T13:27:07.319Z,90.26
2017-07-17T13:27:20.825Z,90.45
2017-07-17T13:27:33.733Z,89.78
2017-07-17T13:27:47.190Z,90.35
2017-07-17T13:28:00.158Z,89.97
2017-07-17T13:28:13.572Z,90.26
2017-07-17T13:28:25.963Z,89.87
2017-07-17T13:28:39.446Z,90.64
2017-07-17T13:28:51.790Z,90.55
2017-07-17T13:29:04.779Z,90.55
2017-07-17T13:29:18.197Z,91.17
2017-07-17T13:29:31.110Z,91.65
2017-07-17T13:29:44.044Z,91.6
2017-07-17T13:29:57.495Z,91.36
2017-07-17T13:30:10.408Z,91.46
2017-07-17T13:30:23.872Z,91.75
2017-07-17T13:30:37.331Z,91.27
2017-07-17T13:30:49.756Z,91.27
2017-07-17T13:31:02.657Z,91.27
2017-07-17T13:31:14.982Z,91.36
2017-07-17T13:31:28.436Z,90.78
2017-07-17T13:31:40.838Z,90.5
2017-07-17T13:31:53.779Z,90.88
2017-07-17T13:32:06.690Z,90.69
2017-07-17T13:32:19.626Z,90.78
2017-07-17T13:32:33.049Z,90.5
2017-07-17T13:32:45.897Z,89.82
2017-07-17T13:32:58.837Z,89.82
2017-07-17T13:33:12.274Z,89.63
2017-07-17T13:33:25.195Z,90.2
2017-07-17T13:33:38.115Z,89.43
2017-07-17T13:33:51.599Z,89.72
2017-07-17T13:34:05.405Z,89.72
2017-07-17T13:34:18.902Z,89.15
2017-07-17T13:34:31.832Z,88.85
2017-07-17T13:34:44.772Z,88.85
2017-07-17T13:34:58.670Z,88.85
2017-07-17T13:35:12.576Z,89.05
2017-07-17T13:35:24.973Z,89.72
2017-07-17T13:35:38.480Z,89.72
2017-07-17T13:35:51.911Z,89.43
2017-07-17T13:36:05.400Z,89.24
2017-07-17T13:36:17.768Z,88.95
2017-07-17T13:36:31.205Z,89.05
2017-07-17T13:36:44.688Z,88.95
2017-07-17T13:36:58.099Z,89.05
2017-07-17T13:37:11.009Z,88.85
2017-07-17T13:37:24.472Z,88.95
2017-07-17T13:37:37.905Z,89.34
2017-07-17T13:37:50.778Z,89.24
2017-07-17T13:38:03.698Z,89.63
2017-07-17T13:38:16.054Z,89.92
2017-07-17T13:38:28.953Z,90.3
2017-07-17T13:38:42.446Z,90.2
2017-07-17T13:38:55.362Z,90.3
2017-07-17T13:39:08.537Z,90.59
2017-07-17T13:39:21.969Z,89.82
2017-07-17T13:39:34.898Z,90.11
2017-07-17T13:39:48.330Z,90.01
2017-07-17T13:40:01.804Z,90.01
2017-07-17T13:40:14.771Z,89.82
2017-07-17T13:40:28.290Z,89.92
2017-07-17T13:40:41.190Z,90.34
2017-07-17T13:40:54.074Z,90.2
2017-07-17T13:41:07.042Z,90.16
2017-07-17T13:41:19.442Z,89.96
2017-07-17T13:41:32.889Z,89.72
2017-07-17T13:41:45.746Z,89.34
2017-07-17T13:41:59.139Z,89.48
2017-07-17T13:42:12.041Z,89.29
2017-07-17T13:42:24.995Z,88.81
2017-07-17T13:42:38.426Z,89.39
2017-07-17T13:42:51.918Z,88.81
2017-07-17T13:43:04.805Z,89.09
2017-07-17T13:43:18.197Z,88.13
2017-07-17T13:43:31.079Z,88.51
2017-07-17T13:43:44.018Z,88.42
2017-07-17T13:43:57.445Z,88.61
2017-07-17T13:44:10.359Z,88.42
2017-07-17T13:44:23.801Z,88.51
2017-07-17T13:44:37.291Z,89.09
2017-07-17T13:44:49.667Z,88.9
2017-07-17T13:45:01.520Z,88.9
2017-07-17T13:45:14.978Z,89.09
2017-07-17T13:45:27.872Z,88.61
2017-07-17T13:45:40.267Z,88.42
2017-07-17T13:45:53.689Z,88.42
2017-07-17T13:46:07.122Z,88.42
2017-07-17T13:46:19.449Z,88.23
2017-07-17T13:46:32.955Z,88.42
2017-07-17T13:46:45.321Z,88.32
2017-07-17T13:46:58.753Z,88.04
2017-07-17T13:47:11.634Z,87.84
2017-07-17T13:47:25.056Z,87.84
2017-07-17T13:47:37.990Z,87.46
2017-07-17T13:47:50.918Z,86.98
2017-07-17T13:48:04.382Z,87.17
2017-07-17T13:48:17.314Z,86.59
2017-07-17T13:48:30.249Z,86.49
2017-07-17T13:48:42.059Z,86.11
2017-07-17T13:48:54.992Z,85.82
2017-07-17T13:49:08.340Z,85.63
2017-07-17T13:49:21.824Z,85.43
2017-07-17T13:49:35.263Z,85.91
2017-07-17T13:49:48.207Z,86.3
2017-07-17T13:50:01.703Z,85.91
2017-07-17T13:50:13.548Z,86.01
2017-07-17T13:50:26.992Z,85.82
2017-07-17T13:50:39.874Z,85.72
2017-07-17T13:50:52.259Z,85.91
2017-07-17T13:51:05.203Z,85.43
2017-07-17T13:51:18.144Z,86.01
2017-07-17T13:51:31.072Z,85.82
2017-07-17T13:51:43.976Z,86.01
2017-07-17T13:51:56.943Z,86.11
2017-07-17T13:52:09.359Z,85.63
2017-07-17T13:52:22.309Z,85.53
2017-07-17T13:52:34.692Z,85.53
2017-07-17T13:52:47.072Z,85.72
2017-07-17T13:52:59.708Z,85.72
2017-07-17T13:53:12.120Z,85.47
2017-07-17T13:53:25.638Z,85.53
2017-07-17T13:53:39.069Z,85.63
2017-07-17T13:53:52.510Z,85.53
2017-07-17T13:54:05.414Z,86.01
2017-07-17T13:54:18.549Z,85.72
2017-07-17T13:54:32.019Z,86.4
2017-07-17T13:54:45.502Z,86.4
2017-07-17T13:54:58.423Z,86.4
2017-07-17T13:55:11.909Z,87.17
2017-07-17T13:55:25.299Z,86.59
2017-07-17T13:55:38.755Z,86.59
2017-07-17T13:55:52.211Z,86.3
2017-07-17T13:56:05.107Z,86.01
2017-07-17T13:56:18.566Z,86.15
2017-07-17T13:56:32.051Z,86.25
2017-07-17T13:56:45.498Z,86.01
2017-07-17T13:56:59.007Z,86.54
2017-07-17T13:57:11.944Z,86.54
2017-07-17T13:57:25.375Z,86.35
2017-07-17T13:57:38.854Z,86.54
2017-07-17T13:57:52.318Z,86.63
2017-07-17T13:58:05.269Z,86.15
2017-07-17T13:58:18.671Z,85.86
2017-07-17T13:58:32.154Z,85.96
2017-07-17T13:58:45.582Z,85.96
2017-07-17T13:58:58.514Z,86.15
2017-07-17T13:59:12.061Z,86.35
2017-07-17T13:59:25.082Z,86.4
2017-07-17T13:59:38.495Z,86.25
2017-07-17T13:59:51.911Z,86.35
2017-07-17T14:00:04.897Z,86.35
2017-07-17T14:00:17.299Z,86.15
2017-07-17T14:00:30.809Z,86.44
2017-07-17T14:00:44.251Z,86.73
2017-07-17T14:00:57.752Z,86.25
2017-07-17T14:01:10.727Z,86.54
2017-07-17T14:01:24.186Z,86.05
2017-07-17T14:01:37.072Z,86.15
2017-07-17T14:01:50.005Z,85.47
2017-07-17T14:02:02.921Z,85.57
2017-07-17T14:02:15.867Z,85.28
2017-07-17T14:02:29.322Z,85.09
2017-07-17T14:02:42.753Z,85.28
2017-07-17T14:02:55.729Z,85.28
2017-07-17T14:03:08.684Z,84.7
2017-07-17T14:03:22.125Z,84.61
2017-07-17T14:03:35.640Z,84.9
2017-07-17T14:03:49.038Z,84.8
2017-07-17T14:04:02.401Z,84.9
2017-07-17T14:04:15.963Z,85.19
2017-07-17T14:04:28.881Z,85.77
2017-07-17T14:04:41.773Z,85.57
2017-07-17T14:04:54.187Z,85.77
2017-07-17T14:05:07.688Z,85.77
2017-07-17T14:05:21.209Z,85.86
2017-07-17T14:05:34.680Z,86.15
2017-07-17T14:05:48.130Z,85.86
2017-07-17T14:06:01.539Z,86.35
2017-07-17T14:06:13.965Z,86.82
2017-07-17T14:06:27.444Z,86.82
2017-07-17T14:06:40.901Z,86.44
2017-07-17T14:06:54.301Z,86.63
2017-07-17T14:07:07.746Z,86.48
2017-07-17T14:07:21.217Z,85.96
2017-07-17T14:07:34.717Z,86.15
2017-07-17T14:07:47.665Z,85.52
2017-07-17T14:08:00.576Z,84.9
2017-07-17T14:08:13.482Z,84.9
2017-07-17T14:08:26.939Z,84.27
2017-07-17T14:08:39.857Z,84.36
2017-07-17T14:08:53.284Z,84.99
2017-07-17T14:09:06.736Z,84.94
2017-07-17T14:09:20.211Z,84.36
2017-07-17T14:09:33.169Z,84.55
2017-07-17T14:09:46.729Z,84.55
2017-07-17T14:09:59.652Z,84.52
2017-07-17T14:10:12.539Z,84.99
2017-07-17T14:10:25.964Z,84.99
2017-07-17T14:10:39.425Z,85.33
2017-07-17T14:10:51.834Z,85.61
2017-07-17T14:11:05.285Z,85.09
2017-07-17T14:11:18.257Z,85.09
2017-07-17T14:11:31.186Z,85.28
2017-07-17T14:11:43.610Z,85.57
2017-07-17T14:11:56.595Z,85.61
2017-07-17T14:12:08.989Z,85.57
2017-07-17T14:12:21.933Z,85.61
2017-07-17T14:12:34.808Z,85.42
2017-07-17T14:12:48.243Z,85.33
2017-07-17T14:13:01.154Z,85.33
2017-07-17T14:13:14.559Z,85.61
2017-07-17T14:13:28.003Z,85.33
2017-07-17T14:13:40.955Z,85.61
2017-07-17T14:13:53.890Z,85.42
2017-07-17T14:14:07.400Z,85.71
2017-07-17T14:14:20.383Z,85.42
2017-07-17T14:14:33.850Z,85.52
2017-07-17T14:14:46.773Z,85.71
2017-07-17T14:15:00.202Z,85.61
2017-07-17T14:15:13.084Z,85.33
2017-07-17T14:15:26.500Z,85.52
2017-07-17T14:15:39.928Z,85.71
2017-07-17T14:15:52.839Z,85.91
2017-07-17T14:16:06.310Z,86
2017-07-17T14:16:19.242Z,85.71
2017-07-17T14:16:32.692Z,86.39
2017-07-17T14:16:46.186Z,85.71
2017-07-17T14:16:58.583Z,85.61
2017-07-17T14:17:11.512Z,86
2017-07-17T14:17:23.895Z,85.81
2017-07-17T14:17:36.813Z,85.71
2017-07-17T14:17:49.711Z,85.42
2017-07-17T14:18:02.671Z,85.61
2017-07-17T14:18:15.082Z,85.71
2017-07-17T14:18:28.590Z,85.91
2017-07-17T14:18:42.096Z,85.71
2017-07-17T14:18:55.604Z,85.61
2017-07-17T14:19:09.015Z,85.42
2017-07-17T14:19:23.107Z,85.61
2017-07-17T14:19:36.504Z,85.61
2017-07-17T14:19:49.425Z,85.61
2017-07-17T14:20:02.360Z,85.33
2017-07-17T14:20:15.864Z,85.61
2017-07-17T14:20:29.246Z,85.61
2017-07-17T14:20:41.660Z,85.71
2017-07-17T14:20:55.100Z,85.61
2017-07-17T14:21:08.544Z,85.03
2017-07-17T14:21:21.457Z,85.33
2017-07-17T14:21:34.376Z,85.23
2017-07-17T14:21:46.753Z,85.23
2017-07-17T14:22:00.188Z,85.52
2017-07-17T14:22:13.678Z,85.71
2017-07-17T14:22:27.154Z,85.42
2017-07-17T14:22:40.145Z,85.66
2017-07-17T14:22:53.591Z,85.37
2017-07-17T14:23:06.521Z,85.56
2017-07-17T14:23:19.953Z,85.85
2017-07-17T14:23:33.494Z,85.85
2017-07-17T14:23:45.891Z,85.27
2017-07-17T14:23:59.369Z,85.46
2017-07-17T14:24:12.782Z,85.08
2017-07-17T14:24:25.204Z,85.03
2017-07-17T14:24:38.654Z,85.17
2017-07-17T14:24:50.530Z,84.5
2017-07-17T14:25:03.430Z,85.08
2017-07-17T14:25:16.358Z,84.69
2017-07-17T14:25:29.236Z,84.65
2017-07-17T14:25:42.668Z,84.69
2017-07-17T14:25:55.076Z,84.5
2017-07-17T14:26:08.529Z,84.41
2017-07-17T14:26:20.434Z,84.75
2017-07-17T14:26:33.910Z,84.79
2017-07-17T14:26:46.788Z,84.89
2017-07-17T14:26:59.186Z,84.79
2017-07-17T14:27:12.116Z,84.69
2017-07-17T14:27:25.005Z,84.01
2017-07-17T14:27:38.500Z,84.41
2017-07-17T14:27:51.920Z,84.79
2017-07-17T14:28:04.288Z,84.5
2017-07-17T14:28:17.253Z,84.41
2017-07-17T14:28:30.658Z,84.11
2017-07-17T14:28:43.586Z,84.5
2017-07-17T14:28:56.999Z,84.41
2017-07-17T14:29:09.361Z,84.01
2017-07-17T14:29:22.859Z,84.69
2017-07-17T14:29:36.296Z,84.69
2017-07-17T14:29:49.788Z,84.69
2017-07-17T14:30:02.174Z,84.59
2017-07-17T14:30:15.146Z,84.69
2017-07-17T14:30:28.617Z,84.5
2017-07-17T14:30:42.040Z,85.37
2017-07-17T14:30:55.505Z,85.37
2017-07-17T14:31:08.461Z,85.75
2017-07-17T14:31:21.930Z,85.66
2017-07-17T14:31:35.375Z,85.75
2017-07-17T14:31:48.732Z,86.14
2017-07-17T14:32:01.209Z,85.75
2017-07-17T14:32:14.725Z,85.37
2017-07-17T14:32:28.269Z,84.69
2017-07-17T14:32:41.672Z,84.69
2017-07-17T14:32:55.093Z,84.59
2017-07-17T14:33:08.516Z,84.69
2017-07-17T14:33:21.454Z,83.92
2017-07-17T14:33:34.893Z,83.83
2017-07-17T14:33:48.287Z,83.83
2017-07-17T14:34:01.772Z,83.53